Terminal Aerodrome Forecast
Issued by NWS Tampa Bay Area, FL

Home | Current Version | Previous Version | Text Only | Print | Product List | Glossary On
Versions: 1 2 3 4 5 6 7 8 9 10 11 12 13 14 15 16
000
FTUS42 KTBW 270231 AAA
TAFSRQ
TAF AMD
KSRQ 270231Z 2703/2724 VRB05KT P6SM VCSH SCT050 SCT150
      TEMPO 2703/2704 SHRA BKN035
     FM271400 14005KT P6SM FEW035 SCT250
     FM271800 26007KT P6SM VCTS SCT040CB SCT250=

USA.gov is the U.S. government's official web portal to all federal, state and local government web resources and services.